Time;durP1;ratioP1;P1;durP2;ratioP2;P2;SDS_P1;SDS_P2;PMS_P1;PMS_P2;Temp;Humidity;BMP_temperature;BMP_pressure;BME280_temperature;BME280_humidity;BME280_pressure;Samples;Min_cycle;Max_cycle;Signal;HPM_P1;HPM_P2
2022/08/17 00:01:25;;;;;;;683.20;41.72;;;19.80;99.90;;;19.00;100.00;100717.63;4978060;28;20041;-77
2022/08/17 00:03:52;;;;;;;43.08;27.95;;;19.70;99.90;;;18.89;100.00;100717.66;4996433;28;20049;-77
2022/08/17 00:06:28;;;;;;;151.02;31.50;;;19.60;99.90;;;18.79;100.00;100719.38;4974800;28;20065;-77
2022/08/17 00:08:58;;;;;;;56.78;35.22;;;19.50;99.90;;;18.73;100.00;100711.88;4990868;28;20777;-77
2022/08/17 00:11:36;;;;;;;53.75;32.35;;;19.50;99.90;;;18.68;100.00;100714.88;4968668;28;20037;-77
2022/08/17 00:14:17;;;;;;;29.70;23.35;;;19.40;99.90;;;18.59;100.00;100718.31;4977629;28;20115;-77
2022/08/17 00:16:52;;;;;;;69.43;37.35;;;19.40;99.90;;;18.56;100.00;100714.06;4976092;28;20065;-77
2022/08/17 00:19:23;;;;;;;38.50;25.98;;;19.30;99.90;;;18.51;100.00;100708.28;4933528;28;20057;-77
2022/08/17 00:21:51;;;;;;;79.65;38.60;;;19.30;99.90;;;18.49;100.00;100712.00;4975837;28;20501;-77
2022/08/17 00:24:20;;;;;;;166.00;43.47;;;19.30;99.90;;;18.46;100.00;100710.44;4990286;28;20570;-77
2022/08/17 00:26:46;;;;;;;125.60;43.08;;;19.30;99.90;;;18.43;100.00;100705.38;4976687;28;20066;-77
2022/08/17 00:29:13;;;;;;;208.07;35.67;;;19.20;99.90;;;18.41;100.00;100716.13;5006680;28;20519;-77
2022/08/17 00:31:38;;;;;;;47.85;29.85;;;19.20;99.90;;;18.41;100.00;100709.97;4970664;28;20113;-77
2022/08/17 00:34:07;;;;;;;42.30;31.23;;;19.20;99.90;;;18.41;100.00;100715.31;5021507;28;20041;-77
2022/08/17 00:36:35;;;;;;;66.57;42.15;;;19.20;99.90;;;18.42;100.00;100711.66;4991518;28;21491;-77
2022/08/17 00:39:02;;;;;;;71.93;45.47;;;19.20;99.90;;;18.46;100.00;100710.44;4946173;28;20121;-77
2022/08/17 00:41:28;;;;;;;65.03;43.15;;;19.20;99.90;;;18.47;100.00;100717.47;4973321;28;20064;-77
2022/08/17 00:44:05;;;;;;;51.53;34.45;;;19.30;99.90;;;18.49;100.00;100712.00;4982289;28;20038;-78
2022/08/17 00:46:36;;;;;;;44.83;34.08;;;19.20;99.90;;;18.49;100.00;100723.53;4995317;28;20073;-77
2022/08/17 00:49:10;;;;;;;65.75;43.53;;;19.30;99.90;;;18.50;100.00;100711.03;4966947;28;20041;-77
2022/08/17 00:52:03;;;;;;;75.97;42.85;;;19.30;99.90;;;18.50;100.00;100711.03;4978677;28;20057;-77
2022/08/17 00:54:39;;;;;;;69.65;45.70;;;19.20;99.90;;;18.48;100.00;100713.81;4968800;28;20029;-77
2022/08/17 00:57:32;;;;;;;84.25;50.13;;;19.20;99.90;;;18.49;100.00;100715.53;4983575;28;20714;-77
2022/08/17 01:00:18;;;;;;;75.32;48.45;;;19.30;99.90;;;18.48;100.00;100713.81;4966385;28;20033;-77
2022/08/17 01:02:46;;;;;;;79.77;49.27;;;19.20;99.90;;;18.48;100.00;100721.81;4962266;28;20487;-77
2022/08/17 01:05:26;;;;;;;88.10;51.35;;;19.20;99.90;;;18.47;100.00;100712.16;4938649;28;20293;-77
2022/08/17 01:07:53;;;;;;;76.82;49.03;;;19.20;99.90;;;18.45;100.00;100706.94;4966246;28;20583;-78
2022/08/17 01:10:28;;;;;;;86.32;50.50;;;19.20;99.90;;;18.46;100.00;100713.09;4946461;28;20034;-77
2022/08/17 01:12:55;;;;;;;117.22;57.60;;;19.20;99.90;;;18.45;100.00;100716.75;5003657;28;20132;-77
2022/08/17 01:15:21;;;;;;;104.18;51.63;;;19.20;99.90;;;18.43;100.00;100716.03;4955510;28;20091;-77
2022/08/17 01:17:47;;;;;;;67.78;42.20;;;19.20;99.90;;;18.37;100.00;100716.50;4954547;28;20033;-77
2022/08/17 01:20:15;;;;;;;64.30;40.72;;;19.10;99.90;;;18.32;100.00;100719.53;4966770;28;20064;-77
2022/08/17 01:22:44;;;;;;;73.82;44.35;;;19.10;99.90;;;18.28;100.00;100728.75;4966774;28;20183;-77
2022/08/17 01:25:11;;;;;;;82.90;44.05;;;19.00;99.90;;;18.26;100.00;100727.19;4976692;28;20034;-77
2022/08/17 01:27:37;;;;;;;79.22;49.13;;;19.00;99.90;;;18.22;100.00;100724.75;4938295;28;20537;-77
2022/08/17 01:30:17;;;;;;;75.38;45.90;;;19.00;99.90;;;18.22;100.00;100724.75;4980114;23;20045;-77
2022/08/17 01:32:43;;;;;;;81.80;50.67;;;19.00;99.90;;;18.22;100.00;100729.22;4948574;28;20464;-78
2022/08/17 01:35:09;;;;;;;48.55;37.33;;;19.00;99.90;;;18.24;100.00;100728.13;4965222;28;20110;-77
2022/08/17 01:37:40;;;;;;;;;;;19.00;99.90;;;18.21;100.00;100731.06;4967636;28;20521;-77
2022/08/17 01:40:38;;;;;;;51.53;36.35;;;19.00;99.90;;;18.21;100.00;100731.06;4982589;28;19927;-77
2022/08/17 01:43:21;;;;;;;111.82;56.42;;;19.00;99.90;;;18.22;100.00;100723.91;4980222;28;20046;-77
2022/08/17 01:45:51;;;;;;;80.60;50.33;;;19.00;99.90;;;18.23;100.00;100722.94;4963583;28;20037;-77
2022/08/17 01:48:22;;;;;;;61.08;43.50;;;19.00;99.90;;;18.25;100.00;100729.00;5022547;28;20029;-77
2022/08/17 01:50:51;;;;;;;78.90;48.47;;;19.00;99.90;;;18.24;100.00;100733.47;4925361;28;20046;-77
2022/08/17 01:53:31;;;;;;;70.00;46.42;;;19.00;99.90;;;18.24;100.00;100732.63;4959825;28;20034;-78
2022/08/17 01:56:04;;;;;;;103.78;40.85;;;19.00;99.90;;;18.21;100.00;100731.06;4960455;28;20033;-77
2022/08/17 01:58:33;;;;;;;582.63;61.47;;;19.00;99.90;;;18.17;100.00;100740.25;4953526;28;20038;-78
2022/08/17 02:00:59;;;;;;;46.38;29.55;;;18.90;99.90;;;18.02;100.00;100744.97;4986954;28;20160;-77
2022/08/17 02:03:25;;;;;;;51.80;34.33;;;18.80;99.90;;;17.96;100.00;100739.25;4965045;28;20442;-78
2022/08/17 02:05:53;;;;;;;67.75;39.70;;;18.80;99.90;;;17.93;100.00;100739.50;4993059;28;20034;-77
2022/08/17 02:08:21;;;;;;;54.92;37.53;;;18.70;99.90;;;17.90;100.00;100750.38;4966150;28;20072;-77
2022/08/17 02:10:49;;;;;;;41.35;29.35;;;18.70;99.90;;;17.89;100.00;100754.88;4962171;23;20075;-78
2022/08/17 02:13:15;;;;;;;90.72;47.08;;;18.70;99.90;;;17.90;100.00;100750.38;5009863;28;20032;-77
2022/08/17 02:15:41;;;;;;;57.10;39.33;;;18.70;99.90;;;17.92;100.00;100756.44;5043034;28;20048;-78
2022/08/17 02:18:11;;;;;;;42.65;31.45;;;18.70;99.90;;;17.92;100.00;100754.63;5018140;28;20587;-77
2022/08/17 02:20:37;;;;;;;40.92;29.70;;;18.70;99.90;;;17.93;100.00;100748.34;5030440;28;20038;-77
2022/08/17 02:23:07;;;;;;;72.05;42.67;;;18.70;99.90;;;17.95;100.00;100750.91;5002521;28;20029;-77
2022/08/17 02:25:35;;;;;;;48.70;33.38;;;18.70;99.90;;;17.96;100.00;100750.75;5002143;28;20059;-77
2022/08/17 02:28:03;;;;;;;71.15;43.30;;;18.70;99.90;;;18.00;100.00;100748.72;5002669;28;20056;-77
2022/08/17 02:30:29;;;;;;;96.50;51.28;;;18.80;99.90;;;18.03;100.00;100746.66;4986938;22;20067;-78
2022/08/17 02:32:55;;;;;;;98.78;50.03;;;18.80;99.90;;;17.99;100.00;100736.34;4989568;28;20042;-78
2022/08/17 02:35:22;;;;;;;149.88;57.85;;;18.80;99.90;;;18.01;100.00;100731.75;5006700;28;20119;-77
2022/08/17 02:37:50;;;;;;;68.38;41.58;;;18.80;99.90;;;18.02;100.00;100731.63;4968265;28;20067;-78
2022/08/17 02:40:23;;;;;;;98.47;48.80;;;18.80;99.90;;;18.00;100.00;100736.22;4999258;28;20036;-77
2022/08/17 02:42:49;;;;;;;98.90;48.67;;;18.80;99.90;;;17.98;100.00;100737.31;4991069;28;20036;-78
2022/08/17 02:45:21;;;;;;;90.53;44.53;;;18.80;99.90;;;17.99;100.00;100736.34;4987632;28;20030;-77
2022/08/17 02:47:50;;;;;;;90.43;44.92;;;18.80;99.90;;;17.95;100.00;100734.91;5017636;28;20532;-77
2022/08/17 02:50:19;;;;;;;109.80;50.63;;;18.80;99.90;;;17.96;100.00;100736.59;5014171;23;20056;-77
2022/08/17 02:52:54;;;;;;;75.13;42.80;;;18.70;99.90;;;17.94;100.00;100738.53;4986401;28;20033;-78
2022/08/17 02:55:29;;;;;;;69.40;34.50;;;18.70;99.90;;;17.92;100.00;100741.31;4990758;28;20044;-77
2022/08/17 02:57:57;;;;;;;18.65;15.48;;;18.70;99.90;;;17.86;100.00;100747.13;4982585;28;20041;-77
2022/08/17 03:00:28;;;;;;;222.20;40.00;;;18.60;99.90;;;17.81;100.00;100743.91;5038668;28;20588;-77
2022/08/17 03:03:01;;;;;;;16.13;11.82;;;18.60;99.90;;;17.77;100.00;100758.44;4988919;28;20034;-77
2022/08/17 03:05:30;;;;;;;13.45;12.05;;;18.60;99.90;;;17.73;100.00;100760.50;4985273;28;20051;-77
2022/08/17 03:07:56;;;;;;;62.60;36.30;;;18.50;99.90;;;17.72;100.00;100758.78;4984598;28;20064;-77
2022/08/17 03:10:28;;;;;;;22.80;17.95;;;18.50;99.90;;;17.70;100.00;100760.72;5025479;22;20045;-77
2022/08/17 03:12:54;;;;;;;1269.18;53.72;;;18.50;99.90;;;17.62;100.00;100763.09;5011169;28;20033;-78
2022/08/17 03:15:30;;;;;;;658.33;41.67;;;18.40;99.90;;;17.45;100.00;100755.53;5017640;28;20514;-78
2022/08/17 03:17:57;;;;;;;82.83;21.13;;;18.20;99.90;;;17.37;100.00;100759.63;4968297;28;20072;-79
2022/08/17 03:20:25;;;;;;;275.13;38.38;;;18.20;99.90;;;17.31;100.00;100761.91;4987074;28;20156;-78
2022/08/17 03:22:54;;;;;;;378.73;44.80;;;18.10;99.90;;;17.27;100.00;100755.13;4976047;28;20033;-78
2022/08/17 03:25:44;;;;;;;101.03;46.30;;;18.10;99.90;;;17.24;100.00;100753.53;4989668;28;20100;-78
2022/08/17 03:28:11;;;;;;;74.93;40.83;;;18.10;99.90;;;17.26;100.00;100759.59;4958670;28;20417;-78
2022/08/17 03:30:38;;;;;;;115.47;55.25;;;18.10;99.90;;;17.29;100.00;100762.00;4980702;23;20052;-77
2022/08/17 03:33:09;;;;;;;222.75;68.63;;;18.10;99.90;;;17.30;100.00;100750.41;4993385;28;20090;-78
2022/08/17 03:35:39;;;;;;;89.20;45.28;;;18.10;99.90;;;17.32;100.00;100755.59;5002226;28;20050;-77
2022/08/17 03:38:06;;;;;;;105.13;51.35;;;18.10;99.90;;;17.35;100.00;100755.41;5038007;28;20036;-78
2022/08/17 03:40:42;;;;;;;76.70;41.50;;;18.10;99.90;;;17.34;100.00;100748.34;4995063;28;20218;-78
2022/08/17 03:43:09;;;;;;;118.85;47.03;;;18.10;99.90;;;17.31;100.00;100749.44;4984350;28;20668;-78
2022/08/17 03:56:57;;;;;;;125.93;54.70;;;18.10;99.90;;;17.31;100.00;100759.25;4987902;28;20524;-78
2022/08/17 03:59:23;;;;;;;93.55;47.30;;;18.10;99.90;;;17.34;100.00;100759.88;4974320;28;20089;-78
2022/08/17 04:01:55;;;;;;;73.07;41.03;;;18.20;99.90;;;17.36;100.00;100760.59;4958257;28;22185;-77
2022/08/17 04:04:21;;;;;;;57.85;37.30;;;18.20;99.90;;;17.39;100.00;100757.72;5004920;28;20049;-78
2022/08/17 04:06:47;;;;;;;94.25;45.30;;;18.20;99.90;;;17.43;100.00;100761.00;4993505;28;20128;-79
2022/08/17 04:09:13;;;;;;;83.57;48.15;;;18.20;99.90;;;17.49;100.00;100765.84;4953537;28;20497;-78
2022/08/17 04:11:40;;;;;;;77.13;43.70;;;18.30;99.90;;;17.57;100.00;100759.94;4986615;28;20041;-78
2022/08/17 04:14:06;;;;;;;91.25;49.05;;;18.30;99.90;;;17.65;100.00;100762.06;4987619;28;20037;-78
2022/08/17 04:16:38;;;;;;;94.30;48.67;;;18.40;99.90;;;17.73;100.00;100771.16;4983768;28;20632;-78
2022/08/17 04:19:05;;;;;;;75.32;41.90;;;18.50;99.90;;;17.77;100.00;100769.94;4991808;28;20497;-77
2022/08/17 04:21:32;;;;;;;67.78;39.80;;;18.50;99.90;;;17.80;100.00;100777.69;4969757;28;20079;-78
2022/08/17 04:23:57;;;;;;;52.63;32.83;;;18.50;99.90;;;17.85;100.00;100779.19;5005970;28;20492;-78
2022/08/17 04:26:27;;;;;;;46.40;31.65;;;18.50;99.90;;;17.91;100.00;100776.06;4985289;28;20033;-78
2022/08/17 04:28:53;;;;;;;65.25;38.70;;;18.60;99.90;;;17.99;100.00;100771.84;4986142;28;20033;-78
2022/08/17 04:31:19;;;;;;;50.17;33.95;;;18.70;99.90;;;18.08;100.00;100770.28;5008192;28;20116;-78
2022/08/17 04:33:45;;;;;;;59.67;33.42;;;18.70;99.90;;;18.16;100.00;100783.88;4971970;28;20079;-78
2022/08/17 04:36:19;;;;;;;34.33;24.77;;;18.80;99.90;;;18.24;100.00;100773.44;4984179;28;20702;-78
2022/08/17 04:38:46;;;;;;;64.75;37.58;;;18.90;99.90;;;18.33;100.00;100785.19;4991749;28;20041;-78
2022/08/17 04:44:06;;;;;;;59.40;38.72;;;19.10;99.90;;;18.78;100.00;100795.06;4987621;28;20052;-78
2022/08/17 04:46:34;;;;;;;68.40;41.17;;;19.70;99.90;;;19.99;100.00;100797.56;4939136;28;20041;-78
2022/08/17 04:49:08;;;;;;;64.18;40.65;;;20.70;99.90;;;21.62;100.00;100808.19;4990364;28;20059;-78
2022/08/17 04:51:41;;;;;;;56.03;35.70;;;21.70;99.90;;;23.03;100.00;100810.06;4958941;28;20041;-78
2022/08/17 04:54:20;;;;;;;52.10;32.97;;;22.60;99.90;;;24.47;89.79;100818.00;4988205;28;20465;-78
2022/08/17 04:56:52;;;;;;;38.58;27.33;;;23.80;99.90;;;25.64;82.07;100822.66;4987757;28;20097;-78
2022/08/17 04:59:21;;;;;;;34.63;25.52;;;24.70;99.90;;;26.75;75.96;100811.22;4965683;28;20038;-79
2022/08/17 05:01:49;;;;;;;26.58;20.65;;;25.60;99.90;;;27.73;71.53;100817.91;4957869;28;20038;-78
2022/08/17 05:04:25;;;;;;;29.65;21.63;;;26.50;99.90;;;28.69;68.23;100828.19;4915848;28;20686;-78
2022/08/17 05:06:53;;;;;;;23.45;19.90;;;27.00;99.90;;;28.47;67.16;100821.78;4955077;28;20037;-78
2022/08/17 05:09:26;;;;;;;26.30;21.40;;;27.40;99.90;;;29.39;65.68;100834.88;4988690;28;20038;-78
2022/08/17 05:11:52;;;;;;;25.95;20.65;;;27.80;99.90;;;29.64;63.63;100827.19;4988682;28;20046;-79
2022/08/17 05:14:18;;;;;;;28.25;21.80;;;28.10;99.90;;;30.08;62.37;100837.00;4983848;28;20084;-79
2022/08/17 05:16:47;;;;;;;26.95;20.08;;;28.40;99.90;;;30.15;62.67;100837.03;4984237;28;20038;-79
2022/08/17 05:19:18;;;;;;;25.77;20.90;;;28.50;99.90;;;29.79;63.40;100846.16;4970512;28;20448;-78
2022/08/17 05:21:44;;;;;;;25.70;21.30;;;28.60;99.90;;;30.38;62.11;100845.81;4987694;28;20053;-79
2022/08/17 05:24:10;;;;;;;25.42;21.35;;;29.00;99.90;;;31.82;58.10;100844.06;4978579;28;20064;-78
2022/08/17 05:26:38;;;;;;;22.35;19.80;;;29.60;99.90;;;32.84;55.36;100848.16;4983006;28;20127;-78
2022/08/17 05:29:13;;;;;;;23.48;19.67;;;30.30;99.90;;;33.27;54.26;100858.47;4922775;28;20042;-78
2022/08/17 05:31:39;;;;;;;26.50;18.75;;;30.60;99.90;;;32.41;55.48;100856.00;4932081;28;20062;-78
2022/08/17 05:34:06;;;;;;;24.45;18.73;;;30.50;99.90;;;31.89;56.58;100861.25;4911302;28;20069;-78
2022/08/17 05:36:39;;;;;;;22.98;18.90;;;30.60;99.90;;;33.42;54.26;100871.00;4950780;28;20029;-79
2022/08/17 05:39:05;;;;;;;20.17;17.80;;;31.20;99.90;;;34.66;51.39;100882.22;4978302;28;20041;-79
2022/08/17 05:41:31;;;;;;;21.08;17.45;;;31.60;99.90;;;34.50;51.65;100881.72;4992626;28;20033;-78
2022/08/17 05:43:56;;;;;;;25.83;17.58;;;31.90;99.90;;;34.32;51.81;100884.41;4981339;28;20055;-79
2022/08/17 05:46:37;;;;;;;22.95;16.85;;;32.00;99.90;;;34.39;51.67;100892.56;4970712;28;20611;-78
2022/08/17 05:49:09;;;;;;;23.42;18.05;;;32.30;99.90;;;35.41;49.77;100903.00;4978358;28;20409;-79
2022/08/17 05:52:22;;;;;;;19.20;16.40;;;32.70;99.90;;;36.53;47.64;100894.88;4977357;28;20466;-79
2022/08/17 05:55:39;;;;;;;18.88;16.63;;;33.60;99.90;;;37.82;44.58;100902.97;4975611;28;20037;-79
2022/08/17 05:58:25;;;;;;;19.08;15.98;;;34.30;99.50;;;38.48;44.00;100898.56;4991434;28;20050;-78
2022/08/17 06:01:19;;;;;;;24.23;17.15;;;34.80;98.50;;;38.72;42.62;100907.44;4982296;28;20135;-79
2022/08/17 06:03:47;;;;;;;18.02;16.13;;;35.40;97.60;;;39.17;42.56;100914.66;4993484;28;20065;-79
2022/08/17 06:06:57;;;;;;;20.73;16.38;;;35.80;97.40;;;39.29;42.66;100921.91;4980491;28;20044;-79
2022/08/17 06:09:32;;;;;;;21.75;16.60;;;36.20;96.90;;;39.34;42.47;100917.31;4871408;28;20049;-79
2022/08/17 06:12:18;;;;;;;22.33;17.25;;;36.40;95.70;;;39.70;41.79;100919.63;4995770;28;20057;-79
2022/08/17 06:14:59;;;;;;;24.87;16.37;;;36.70;95.70;;;39.77;41.04;100921.06;4976135;28;20036;-79
2022/08/17 06:17:26;;;;;;;19.15;15.13;;;37.00;94.60;;;40.21;39.98;100933.03;4977964;28;20053;-79
2022/08/17 06:20:05;;;;;;;18.42;15.52;;;37.10;94.50;;;40.09;40.96;100936.81;4964462;28;20556;-79
2022/08/17 06:22:43;;;;;;;18.25;15.30;;;37.30;93.70;;;40.17;39.78;100936.31;4960404;28;20115;-79
2022/08/17 06:25:41;;;;;;;16.85;15.02;;;37.50;93.10;;;40.45;39.16;100933.50;4977293;28;20037;-79
2022/08/17 06:28:13;;;;;;;16.08;14.32;;;37.60;91.90;;;39.23;40.54;100934.81;4968256;28;20042;-79
2022/08/17 06:31:00;;;;;;;15.82;14.23;;;37.50;92.90;;;39.95;40.08;100933.66;4996709;28;20044;-79
2022/08/17 06:33:32;;;;;;;19.83;14.07;;;37.70;92.00;;;40.20;39.04;100934.97;4984526;28;20763;-79
2022/08/17 06:36:10;;;;;;;17.45;13.57;;;38.00;92.50;;;40.52;39.34;100934.94;4986884;28;20041;-81
2022/08/17 06:39:16;;;;;;;14.65;12.18;;;38.20;92.60;;;39.79;40.06;100932.66;4991047;28;20053;-80
2022/08/17 06:42:29;;;;;;;15.48;12.45;;;37.70;90.90;;;37.75;42.08;100931.44;4985206;28;20044;-79
2022/08/17 06:45:15;;;;;;;12.57;9.85;;;37.10;91.30;;;38.21;40.98;100927.84;4991343;28;20092;-79
2022/08/17 06:47:52;;;;;;;13.88;9.73;;;36.70;90.80;;;37.58;42.29;100925.09;4962755;28;20029;-79
2022/08/17 06:50:45;;;;;;;15.00;9.82;;;36.80;91.40;;;37.58;40.53;100919.59;4992858;28;20041;-80
2022/08/17 06:53:28;;;;;;;11.30;10.10;;;36.90;91.20;;;37.89;40.84;100928.41;4977318;28;20100;-79
2022/08/17 06:56:10;;;;;;;15.57;11.35;;;36.90;91.20;;;37.87;42.77;100938.81;4981227;28;20096;-78
2022/08/17 06:58:42;;;;;;;14.07;9.55;;;37.20;92.20;;;38.26;43.34;100927.94;4998043;28;20041;-79
2022/08/17 07:01:21;;;;;;;12.60;8.57;;;37.70;92.20;;;39.16;41.33;100935.03;4966563;28;20038;-79
2022/08/17 07:04:12;;;;;;;13.32;8.35;;;38.10;90.70;;;39.53;40.33;100941.78;4985550;28;20479;-79
2022/08/17 07:06:50;;;;;;;18.58;9.00;;;38.70;90.60;;;40.06;37.06;100942.84;4987876;28;20525;-78
2022/08/17 07:09:34;;;;;;;8.40;7.45;;;38.80;84.60;;;39.64;37.74;100938.03;4974454;28;20029;-78
2022/08/17 07:12:21;;;;;;;14.82;7.97;;;39.00;89.30;;;39.92;37.54;100938.88;4945737;28;20505;-78
2022/08/17 07:14:58;;;;;;;13.05;8.55;;;38.90;83.20;;;39.23;37.11;100934.81;4953706;28;20042;-78
2022/08/17 07:17:26;;;;;;;13.15;8.43;;;38.50;84.40;;;38.35;39.18;100934.66;4979939;28;20457;-78
2022/08/17 07:20:06;;;;;;;15.30;9.77;;;38.50;84.70;;;38.66;38.02;100937.91;4969257;28;20038;-79
2022/08/17 07:22:54;;;;;;;12.32;8.82;;;38.00;84.00;;;37.87;40.86;100936.91;4978209;28;20123;-78
2022/08/17 07:25:24;;;;;;;13.98;9.30;;;37.80;84.50;;;37.44;41.76;100931.94;4991662;28;20044;-78
2022/08/17 07:27:54;;;;;;;12.40;8.88;;;37.40;84.00;;;36.73;41.60;100921.97;4966949;28;20057;-78
2022/08/17 07:30:32;;;;;;;10.60;8.20;;;37.30;83.10;;;36.99;41.35;100930.75;4958960;28;20517;-78
2022/08/17 07:33:16;;;;;;;13.07;7.93;;;37.60;85.70;;;37.54;38.64;100940.38;4957755;28;20042;-78
2022/08/17 07:35:52;;;;;;;12.07;7.15;;;37.30;85.60;;;36.80;40.52;100930.06;4949183;28;20119;-77
2022/08/17 07:38:23;;;;;;;;;;;37.30;85.30;;;36.41;39.16;100937.91;5004326;28;20052;-77
2022/08/17 07:41:01;;;;;;;9.13;5.97;;;36.70;82.10;;;36.00;40.57;100931.41;5008144;28;19967;-78
2022/08/17 07:43:38;;;;;;;10.65;6.45;;;36.70;82.50;;;36.30;40.20;100934.09;4975464;28;20056;-77
2022/08/17 07:49:06;;;;;;;10.43;6.78;;;36.50;84.70;;;35.84;42.09;100930.19;5011733;28;20128;-77
2022/08/17 07:51:39;;;;;;;9.88;6.75;;;36.30;82.40;;;35.42;41.12;100937.50;4965610;28;20041;-78
2022/08/17 07:54:14;;;;;;;9.90;6.90;;;36.30;85.30;;;35.64;41.60;100933.25;5010071;28;20041;-77
2022/08/17 07:57:17;;;;;;;11.93;6.93;;;36.00;89.40;;;35.49;41.90;100927.31;4997885;28;20068;-77
2022/08/17 08:00:18;;;;;;;15.40;7.82;;;36.20;88.10;;;36.24;42.74;100926.81;5009910;28;20030;-77
2022/08/17 08:03:10;;;;;;;10.40;6.47;;;36.40;85.20;;;36.18;39.89;100916.84;4951087;28;20124;-77
2022/08/17 08:05:51;;;;;;;11.77;7.10;;;36.60;82.20;;;36.59;40.49;100914.19;4971992;28;20693;-78
2022/08/17 08:08:41;;;;;;;10.88;7.00;;;36.80;81.90;;;36.58;39.02;100915.28;4956890;28;20034;-78
2022/08/17 08:11:16;;;;;;;13.73;6.25;;;37.20;84.40;;;37.38;38.25;100935.69;4962935;28;20585;-79
2022/08/17 08:13:44;;;;;;;8.20;5.47;;;37.20;79.60;;;36.85;37.62;100934.81;4963344;28;20465;-78
2022/08/17 08:16:16;;;;;;;21.25;5.57;;;36.80;79.40;;;36.10;40.28;100930.84;4928921;28;20048;-78
2022/08/17 08:18:47;;;;;;;9.48;5.05;;;36.50;80.90;;;35.77;40.94;100940.44;4978549;28;20039;-77
2022/08/17 08:21:30;;;;;;;10.32;5.20;;;36.00;79.60;;;35.19;40.49;100941.81;4983270;28;20025;-78
2022/08/17 08:24:36;;;;;;;13.60;6.22;;;35.80;86.20;;;35.02;41.38;100935.25;4996288;28;20061;-78
2022/08/17 08:27:47;;;;;;;9.95;6.22;;;35.90;85.60;;;35.84;39.94;100940.31;4984484;28;20041;-77
2022/08/17 08:30:20;;;;;;;11.38;5.25;;;36.00;83.00;;;35.89;40.63;100932.22;5005234;28;20486;-78
2022/08/17 08:33:32;;;;;;;14.55;6.45;;;36.00;82.10;;;35.88;40.64;100939.63;4980273;28;20033;-77
2022/08/17 08:36:22;;;;;;;12.38;5.53;;;35.60;82.20;;;34.91;41.02;100934.94;4979043;28;20036;-78
2022/08/17 08:39:19;;;;;;;7.93;4.68;;;35.20;83.90;;;34.33;41.56;100916.16;4999277;28;20060;-78
2022/08/17 08:42:16;;;;;;;9.40;4.70;;;34.90;84.30;;;34.29;41.48;100920.41;4984630;28;20065;-77
2022/08/17 08:44:58;;;;;;;;;;;34.90;84.60;;;34.82;42.00;100919.91;4983205;28;20208;-78
2022/08/17 08:48:20;;;;;;;7.13;4.65;;;35.00;83.10;;;34.87;41.44;100928.25;4959408;28;19999;-77
2022/08/17 08:51:01;;;;;;;10.27;4.85;;;34.50;87.00;;;34.00;44.18;100922.72;4990544;28;20128;-77
2022/08/17 08:54:03;;;;;;;8.90;5.30;;;34.30;85.80;;;33.94;43.93;100917.31;4987051;28;20496;-77
2022/08/17 08:56:41;;;;;;;8.98;5.05;;;34.00;87.60;;;33.80;45.28;100916.53;4968329;28;20037;-78
2022/08/17 08:59:36;;;;;;;13.00;4.78;;;33.90;87.20;;;33.62;43.51;100920.03;4982826;28;20113;-77
2022/08/17 09:02:15;;;;;;;5.55;4.85;;;33.60;87.20;;;33.26;45.25;100911.38;4987969;28;20095;-77
2022/08/17 09:05:10;;;;;;;9.63;4.82;;;33.40;87.20;;;32.99;45.97;100912.50;4992206;28;20038;-78
2022/08/17 09:08:00;;;;;;;6.82;4.95;;;33.00;87.90;;;32.36;45.59;100911.13;4977122;28;20051;-77
2022/08/17 09:11:10;;;;;;;8.30;4.90;;;32.70;88.10;;;31.84;45.95;100908.16;4990346;28;20044;-77
2022/08/17 09:14:43;;;;;;;10.98;5.20;;;32.30;90.60;;;31.67;47.86;100906.88;5001828;28;20057;-76
2022/08/17 09:17:51;;;;;;;10.48;5.32;;;32.20;90.80;;;31.52;47.43;100904.31;4997279;28;20063;-77
2022/08/17 09:20:34;;;;;;;7.40;5.30;;;31.90;90.70;;;31.26;50.01;100907.78;4973587;28;20482;-77
2022/08/17 09:23:14;;;;;;;9.25;5.43;;;31.80;91.40;;;31.15;48.74;100900.19;4959763;28;20041;-75
2022/08/17 09:26:21;;;;;;;12.57;5.38;;;31.70;92.70;;;31.36;49.88;100904.66;4994886;28;20107;-77
2022/08/17 09:28:54;;;;;;;13.38;5.07;;;31.80;91.50;;;31.33;48.83;100903.19;5011944;28;20033;-77
2022/08/17 09:31:37;;;;;;;9.88;5.40;;;31.90;91.50;;;31.59;48.41;100902.44;5002344;28;20034;-77
2022/08/17 09:34:17;;;;;;;11.10;5.45;;;31.90;90.90;;;31.59;48.35;100888.84;4984205;28;20072;-76
2022/08/17 09:37:14;;;;;;;11.02;6.00;;;32.00;90.20;;;31.65;47.80;100889.91;5000761;28;20029;-77
2022/08/17 09:40:08;;;;;;;11.85;5.53;;;31.90;90.70;;;31.54;47.83;100891.34;5000347;28;20037;-77
2022/08/17 09:42:58;;;;;;;7.88;5.55;;;31.90;90.40;;;31.56;47.13;100896.59;5001597;28;20118;-77
2022/08/17 09:45:53;;;;;;;9.18;5.93;;;31.80;90.90;;;31.27;47.43;100891.25;4993440;28;20026;-77
2022/08/17 09:48:45;;;;;;;11.75;5.85;;;31.60;90.70;;;31.12;47.72;100890.53;5018407;28;20060;-77
2022/08/17 09:51:51;;;;;;;10.38;5.88;;;31.40;90.40;;;30.46;48.39;100889.13;4990679;28;20037;-77
2022/08/17 09:54:31;;;;;;;8.85;5.60;;;31.40;91.40;;;31.25;48.67;100897.91;4983394;28;20049;-77
2022/08/17 09:57:25;;;;;;;7.88;5.50;;;31.70;91.60;;;31.45;46.54;100892.59;4995717;28;20049;-77
2022/08/17 10:00:12;;;;;;;7.82;5.85;;;31.70;90.80;;;31.57;47.29;100892.81;4992647;28;20033;-77
2022/08/17 10:03:15;;;;;;;8.25;5.70;;;31.90;90.20;;;31.84;45.85;100901.88;5020807;28;20041;-76
2022/08/17 10:06:03;;;;;;;8.80;5.55;;;32.20;89.70;;;32.24;45.11;100899.19;5011307;28;20402;-76
2022/08/17 10:09:06;;;;;;;8.75;5.85;;;32.40;89.10;;;32.17;46.65;100906.53;5026133;28;20525;-76
2022/08/17 10:14:49;;;;;;;7.40;5.00;;;32.40;90.10;;;32.20;45.68;100906.94;5019993;28;20036;-77
2022/08/17 10:18:06;;;;;;;11.23;5.53;;;32.50;90.80;;;31.75;45.18;100903.97;4993430;28;20133;-76
2022/08/17 10:26:48;;;;;;;8.30;5.45;;;32.10;89.70;;;31.83;47.60;100902.91;4981420;28;20053;-77
2022/08/17 10:29:36;;;;;;;8.73;5.00;;;32.20;90.50;;;31.84;46.56;100901.88;4997095;28;21238;-77
2022/08/17 10:32:09;;;;;;;8.35;4.93;;;32.40;90.90;;;32.33;46.63;100907.97;5003092;28;20050;-76
2022/08/17 10:35:15;;;;;;;9.93;5.13;;;32.50;89.50;;;32.40;44.86;100906.94;4999613;28;20045;-76
2022/08/17 10:37:50;;;;;;;8.88;4.80;;;32.60;88.20;;;32.16;45.42;100904.84;5013232;28;20056;-77
2022/08/17 10:40:57;;;;;;;10.55;5.57;;;32.50;90.00;;;31.95;46.30;100908.59;5013875;28;20639;-77
2022/08/17 10:43:51;;;;;;;9.73;4.80;;;32.00;91.30;;;31.31;48.72;100907.16;5004533;28;20045;-77
2022/08/17 10:46:52;;;;;;;8.85;5.50;;;31.80;90.70;;;31.14;48.21;100903.94;4996887;28;20032;-77
2022/08/17 10:49:52;;;;;;;14.70;5.55;;;31.50;91.10;;;30.78;50.86;100900.41;5005037;28;20052;-77
2022/08/17 10:52:28;;;;;;;9.25;6.00;;;31.40;92.20;;;30.92;48.76;100892.34;5004648;28;20179;-77
2022/08/17 10:54:56;;;;;;;12.30;5.38;;;31.50;92.70;;;31.27;50.34;100904.00;5020578;28;20556;-77
2022/08/17 10:57:37;;;;;;;9.18;5.00;;;31.40;91.50;;;30.81;50.00;100897.28;4999919;28;20048;-76
2022/08/17 11:00:41;;;;;;;8.15;5.10;;;31.50;92.00;;;31.27;49.77;100901.28;5030472;28;20988;-75
2022/08/17 11:03:26;;;;;;;9.13;5.03;;;31.60;91.40;;;31.31;50.07;100897.09;5024537;28;20064;-76
2022/08/17 11:06:18;;;;;;;11.23;5.47;;;31.70;92.20;;;31.50;50.35;100897.41;5003181;28;20028;-77
2022/08/17 11:08:55;;;;;;;8.40;4.95;;;31.80;91.90;;;31.50;48.87;100898.25;5018368;28;20030;-77
2022/08/17 11:11:46;;;;;;;8.80;5.50;;;31.90;91.90;;;31.66;49.40;100900.59;5021644;28;20030;-77